Time;durP1;ratioP1;P1;durP2;ratioP2;P2;SDS_P1;SDS_P2;PMS_P1;PMS_P2;Temp;Humidity;BMP_temperature;BMP_pressure;BME280_temperature;BME280_humidity;BME280_pressure;Samples;Min_cycle;Max_cycle;Signal;HPM_P1;HPM_P2
2022/10/10 00:02:01;;;;;;;8.90;8.00;;;;;;;;;;5071059;28;20448;-75
2022/10/10 00:04:30;;;;;;;7.30;6.70;;;;;;;;;;5070719;28;20995;-76
2022/10/10 00:06:57;;;;;;;8.73;7.93;;;;;;;;;;5075611;28;20445;-74
2022/10/10 00:09:24;;;;;;;8.10;7.30;;;;;;;;;;5083149;28;20445;-75
2022/10/10 00:11:51;;;;;;;9.43;7.87;;;;;;;;;;5076251;28;20434;-75
2022/10/10 00:14:18;;;;;;;8.37;7.67;;;;;;;;;;5062379;28;20492;-75
2022/10/10 00:16:45;;;;;;;10.07;7.70;;;;;;;;;;5060298;28;20442;-75
2022/10/10 00:19:12;;;;;;;8.10;7.30;;;;;;;;;;5059903;28;20438;-75
2022/10/10 00:21:40;;;;;;;9.23;7.80;;;;;;;;;;5059309;28;20548;-76
2022/10/10 00:24:08;;;;;;;8.57;7.77;;;;;;;;;;5051246;28;20446;-75
2022/10/10 00:26:35;;;;;;;10.73;7.90;;;;;;;;;;5050714;28;20820;-75
2022/10/10 00:29:02;;;;;;;8.97;8.13;;;;;;;;;;5050446;28;21043;-76
2022/10/10 00:31:29;;;;;;;8.10;7.30;;;;;;;;;;5050305;28;20468;-75
2022/10/10 00:33:56;;;;;;;8.40;7.60;;;;;;;;;;5049691;28;20492;-76
2022/10/10 00:36:23;;;;;;;8.70;7.97;;;;;;;;;;5050617;28;20437;-75
2022/10/10 00:38:52;;;;;;;8.00;7.20;;;;;;;;;;5050080;28;20453;-74
2022/10/10 00:41:21;;;;;;;8.50;7.80;;;;;;;;;;5050193;28;20544;-75
2022/10/10 00:44:01;;;;;;;10.83;9.03;;;;;;;;;;5049532;28;20929;-76
2022/10/10 00:46:28;;;;;;;8.67;7.87;;;;;;;;;;5050302;28;20453;-75
2022/10/10 00:48:55;;;;;;;9.00;8.17;;;;;;;;;;5049962;28;20913;-75
2022/10/10 00:51:22;;;;;;;11.33;8.77;;;;;;;;;;5050155;28;20465;-75
2022/10/10 00:53:51;;;;;;;10.97;9.90;;;;;;;;;;5049503;28;20480;-75
2022/10/10 00:56:21;;;;;;;9.50;8.60;;;;;;;;;;5050920;28;20514;-75
2022/10/10 00:58:51;;;;;;;9.37;8.57;;;;;;;;;;5050954;28;20429;-75
2022/10/10 01:01:18;;;;;;;9.50;8.80;;;;;;;;;;5050519;28;20464;-75
2022/10/10 01:03:45;;;;;;;9.17;8.37;;;;;;;;;;5049393;28;20457;-75
2022/10/10 01:06:12;;;;;;;9.83;8.97;;;;;;;;;;5050074;28;20446;-75
2022/10/10 01:08:40;;;;;;;8.70;7.90;;;;;;;;;;5049825;28;20897;-75
2022/10/10 01:11:12;;;;;;;8.77;7.97;;;;;;;;;;5050398;28;20814;-75
2022/10/10 01:13:46;;;;;;;9.53;8.73;;;;;;;;;;5068915;28;20848;-75
2022/10/10 01:16:17;;;;;;;9.27;8.47;;;;;;;;;;5070425;28;20795;-75
2022/10/10 01:18:48;;;;;;;8.03;7.33;;;;;;;;;;5074323;28;20440;-76
2022/10/10 01:21:19;;;;;;;7.97;7.27;;;;;;;;;;5073889;28;20995;-74
2022/10/10 01:24:04;;;;;;;9.57;8.67;;;;;;;;;;5073016;28;20823;-74
2022/10/10 01:26:37;;;;;;;8.20;7.30;;;;;;;;;;5073644;28;20899;-76
2022/10/10 01:29:10;;;;;;;8.27;7.57;;;;;;;;;;5073972;28;20944;-74
2022/10/10 01:31:41;;;;;;;11.10;8.57;;;;;;;;;;5074187;28;20452;-76
2022/10/10 01:34:18;;;;;;;9.07;8.23;;;;;;;;;;5072745;28;20476;-75
2022/10/10 01:36:49;;;;;;;8.20;7.43;;;;;;;;;;5073703;28;20433;-74
2022/10/10 01:39:19;;;;;;;8.47;7.47;;;;;;;;;;5073842;28;20445;-76
2022/10/10 01:41:48;;;;;;;8.73;7.77;;;;;;;;;;5073827;28;20439;-75
2022/10/10 01:44:16;;;;;;;9.33;8.50;;;;;;;;;;5073110;28;20433;-75
2022/10/10 01:46:43;;;;;;;8.87;8.10;;;;;;;;;;5073528;28;20476;-76
2022/10/10 01:49:10;;;;;;;9.33;8.33;;;;;;;;;;5073736;28;20440;-75
2022/10/10 01:51:47;;;;;;;9.53;8.57;;;;;;;;;;5073520;28;20468;-75
2022/10/10 01:54:19;;;;;;;9.47;8.17;;;;;;;;;;5072765;28;20850;-75
2022/10/10 01:56:48;;;;;;;9.80;8.00;;;;;;;;;;5073106;28;20445;-75
2022/10/10 01:59:23;;;;;;;8.77;7.97;;;;;;;;;;5073358;28;20453;-74
2022/10/10 02:01:53;;;;;;;13.00;8.57;;;;;;;;;;5073501;28;20455;-75
2022/10/10 02:04:23;;;;;;;9.87;8.33;;;;;;;;;;5073034;28;20440;-75
2022/10/10 02:06:53;;;;;;;9.10;8.20;;;;;;;;;;5073677;28;20433;-75
2022/10/10 02:09:22;;;;;;;9.30;8.10;;;;;;;;;;5072844;28;20448;-75
2022/10/10 02:11:49;;;;;;;8.63;7.93;;;;;;;;;;5066792;28;20438;-74
2022/10/10 02:14:18;;;;;;;9.67;8.67;;;;;;;;;;5052403;28;20481;-76
2022/10/10 02:16:48;;;;;;;9.23;8.33;;;;;;;;;;5053180;28;20818;-76
2022/10/10 02:19:18;;;;;;;9.77;7.97;;;;;;;;;;5053055;28;20460;-74
2022/10/10 02:21:45;;;;;;;8.93;8.23;;;;;;;;;;5053318;28;20441;-75
2022/10/10 02:24:13;;;;;;;10.20;9.30;;;;;;;;;;5052268;28;20952;-75
2022/10/10 02:26:41;;;;;;;10.10;9.10;;;;;;;;;;5053187;28;20449;-74
2022/10/10 02:29:10;;;;;;;10.20;9.20;;;;;;;;;;5051925;28;20446;-75
2022/10/10 02:31:40;;;;;;;10.13;8.00;;;;;;;;;;5053421;28;20474;-76
2022/10/10 02:34:11;;;;;;;9.10;8.20;;;;;;;;;;5052482;28;20481;-75
2022/10/10 02:36:38;;;;;;;9.30;8.40;;;;;;;;;;5052491;28;20553;-74
2022/10/10 02:39:07;;;;;;;9.90;8.93;;;;;;;;;;5052735;28;20449;-75
2022/10/10 02:41:36;;;;;;;11.33;10.00;;;;;;;;;;5052752;28;20474;-75
2022/10/10 02:44:03;;;;;;;10.83;9.80;;;;;;;;;;5052247;28;20450;-75
2022/10/10 02:46:30;;;;;;;10.50;9.50;;;;;;;;;;5052903;28;20445;-74
2022/10/10 02:48:57;;;;;;;13.07;9.40;;;;;;;;;;5052469;28;20453;-76
2022/10/10 02:51:25;;;;;;;11.10;10.10;;;;;;;;;;5052399;28;20469;-74
2022/10/10 02:53:53;;;;;;;9.63;8.83;;;;;;;;;;5051953;28;20481;-75
2022/10/10 02:56:20;;;;;;;10.30;9.23;;;;;;;;;;5052827;28;20446;-75
2022/10/10 02:58:47;;;;;;;10.57;9.57;;;;;;;;;;5052750;28;20433;-75
2022/10/10 03:01:14;;;;;;;10.67;9.57;;;;;;;;;;5052034;28;21045;-75
2022/10/10 03:03:41;;;;;;;10.30;9.37;;;;;;;;;;5051148;28;20429;-76
2022/10/10 03:06:08;;;;;;;9.87;8.90;;;;;;;;;;5052090;28;20444;-76
2022/10/10 03:08:38;;;;;;;11.80;9.90;;;;;;;;;;5051972;28;20474;-75
2022/10/10 03:11:06;;;;;;;10.40;9.20;;;;;;;;;;5052527;28;20465;-75
2022/10/10 03:13:33;;;;;;;9.20;8.30;;;;;;;;;;5071461;28;20476;-75
2022/10/10 03:16:01;;;;;;;9.83;8.93;;;;;;;;;;5072103;28;20956;-76
2022/10/10 03:18:28;;;;;;;9.70;8.80;;;;;;;;;;5072220;28;20543;-75
2022/10/10 03:20:55;;;;;;;9.67;8.90;;;;;;;;;;5071869;28;20464;-75
2022/10/10 03:23:23;;;;;;;9.77;8.93;;;;;;;;;;5071332;28;20819;-75
2022/10/10 03:25:51;;;;;;;13.30;9.50;;;;;;;;;;5071737;28;20449;-74
2022/10/10 03:28:18;;;;;;;10.00;9.10;;;;;;;;;;5071825;28;20426;-74
2022/10/10 03:30:46;;;;;;;11.80;10.27;;;;;;;;;;5071678;28;21255;-75
2022/10/10 03:33:13;;;;;;;10.23;9.33;;;;;;;;;;5071162;28;20483;-75
2022/10/10 03:35:40;;;;;;;10.63;9.53;;;;;;;;;;5071589;28;21005;-75
2022/10/10 03:38:07;;;;;;;12.07;9.87;;;;;;;;;;5071599;28;20801;-74
2022/10/10 03:40:34;;;;;;;14.17;9.67;;;;;;;;;;5071282;28;20469;-75
2022/10/10 03:43:03;;;;;;;10.47;9.57;;;;;;;;;;5071049;28;20445;-74
2022/10/10 03:45:30;;;;;;;10.27;9.27;;;;;;;;;;5071190;28;20437;-75
2022/10/10 03:47:57;;;;;;;12.17;10.07;;;;;;;;;;5071449;28;20468;-76
2022/10/10 03:50:24;;;;;;;13.10;9.73;;;;;;;;;;5071467;28;20490;-76
2022/10/10 03:52:51;;;;;;;12.80;11.50;;;;;;;;;;5070698;28;20605;-75
2022/10/10 03:55:18;;;;;;;11.83;9.67;;;;;;;;;;5070837;28;20485;-75
2022/10/10 03:57:45;;;;;;;12.10;10.83;;;;;;;;;;5070972;28;20809;-76
2022/10/10 04:00:14;;;;;;;11.50;10.30;;;;;;;;;;5071243;28;20464;-74
2022/10/10 04:02:41;;;;;;;11.40;10.30;;;;;;;;;;5070250;28;20441;-75
2022/10/10 04:05:09;;;;;;;10.97;9.90;;;;;;;;;;5071275;28;20917;-74
2022/10/10 04:07:36;;;;;;;12.30;10.97;;;;;;;;;;5070918;28;20521;-75
2022/10/10 04:10:03;;;;;;;10.67;9.67;;;;;;;;;;5070699;28;20473;-76
2022/10/10 04:12:30;;;;;;;12.53;11.23;;;;;;;;;;5070807;28;20444;-75
2022/10/10 04:14:57;;;;;;;11.23;10.30;;;;;;;;;;5070746;28;20907;-74
2022/10/10 04:17:25;;;;;;;12.97;10.80;;;;;;;;;;5070599;28;20983;-75
2022/10/10 04:19:52;;;;;;;13.20;11.67;;;;;;;;;;5070489;28;20469;-75
2022/10/10 04:22:20;;;;;;;11.60;10.23;;;;;;;;;;5070341;28;20432;-74
2022/10/10 04:24:47;;;;;;;12.00;10.80;;;;;;;;;;5070126;28;20468;-75
2022/10/10 04:27:14;;;;;;;13.03;11.03;;;;;;;;;;5070593;28;20448;-76
2022/10/10 04:29:41;;;;;;;13.20;9.97;;;;;;;;;;5070549;28;20481;-75
2022/10/10 04:32:08;;;;;;;14.13;10.60;;;;;;;;;;5070470;28;20474;-76
2022/10/10 04:34:36;;;;;;;11.03;9.83;;;;;;;;;;5069738;28;20488;-75
2022/10/10 04:37:03;;;;;;;11.93;10.83;;;;;;;;;;5070351;28;20444;-76
2022/10/10 04:39:30;;;;;;;13.50;11.00;;;;;;;;;;5069877;28;20444;-75
2022/10/10 04:41:57;;;;;;;10.93;9.97;;;;;;;;;;5070235;28;20456;-75
2022/10/10 04:44:25;;;;;;;12.00;10.83;;;;;;;;;;5069989;28;20818;-75
2022/10/10 04:46:52;;;;;;;11.40;10.30;;;;;;;;;;5070345;28;20445;-75
2022/10/10 04:49:19;;;;;;;11.70;10.57;;;;;;;;;;5069956;28;20511;-75
2022/10/10 04:51:47;;;;;;;11.50;10.40;;;;;;;;;;5069458;28;20795;-75
2022/10/10 04:54:14;;;;;;;11.23;10.23;;;;;;;;;;5069264;28;20468;-74
2022/10/10 04:56:41;;;;;;;12.10;10.93;;;;;;;;;;5070142;28;20956;-76
2022/10/10 04:59:09;;;;;;;12.10;10.80;;;;;;;;;;5069992;28;20816;-75
2022/10/10 05:01:36;;;;;;;12.30;11.10;;;;;;;;;;5069771;28;20543;-75
2022/10/10 05:04:03;;;;;;;10.63;9.73;;;;;;;;;;5069722;28;20816;-75
2022/10/10 05:06:30;;;;;;;13.60;10.53;;;;;;;;;;5069841;28;20455;-76
2022/10/10 05:08:59;;;;;;;11.20;10.03;;;;;;;;;;5070040;28;20449;-76
2022/10/10 05:11:26;;;;;;;14.43;10.87;;;;;;;;;;5066599;28;20465;-75
2022/10/10 05:13:53;;;;;;;13.60;11.37;;;;;;;;;;5049294;28;20933;-75
2022/10/10 05:16:20;;;;;;;16.43;11.50;;;;;;;;;;5049707;28;20977;-76
2022/10/10 05:18:47;;;;;;;16.53;12.30;;;;;;;;;;5049871;28;20742;-76
2022/10/10 05:21:14;;;;;;;18.30;11.50;;;;;;;;;;5049490;28;20472;-75
2022/10/10 05:23:41;;;;;;;12.37;11.17;;;;;;;;;;5049413;28;20541;-75
2022/10/10 05:26:10;;;;;;;16.20;10.97;;;;;;;;;;5049837;28;20828;-75
2022/10/10 05:28:37;;;;;;;16.40;11.73;;;;;;;;;;5049698;28;20449;-76
2022/10/10 05:31:04;;;;;;;14.77;11.37;;;;;;;;;;5049615;28;20964;-76
2022/10/10 05:33:31;;;;;;;12.13;10.90;;;;;;;;;;5048837;28;20449;-75
2022/10/10 05:36:03;;;;;;;15.00;12.37;;;;;;;;;;5049426;28;21024;-75
2022/10/10 05:38:30;;;;;;;12.63;10.73;;;;;;;;;;5050369;28;20445;-75
2022/10/10 05:40:58;;;;;;;12.43;11.03;;;;;;;;;;5049899;28;20458;-76
2022/10/10 05:43:26;;;;;;;12.27;10.97;;;;;;;;;;5049207;28;20445;-76
2022/10/10 05:45:53;;;;;;;13.70;11.33;;;;;;;;;;5049825;28;20445;-77
2022/10/10 05:48:20;;;;;;;13.27;11.87;;;;;;;;;;5049335;28;20445;-76
2022/10/10 05:50:49;;;;;;;16.50;11.67;;;;;;;;;;5049541;28;20474;-75
2022/10/10 05:53:16;;;;;;;16.40;11.93;;;;;;;;;;5049104;28;20449;-75
2022/10/10 05:55:44;;;;;;;17.63;11.23;;;;;;;;;;5050817;28;20488;-76
2022/10/10 05:58:12;;;;;;;16.03;11.30;;;;;;;;;;5065955;28;20440;-75
2022/10/10 06:00:40;;;;;;;13.73;10.97;;;;;;;;;;5065521;28;20471;-75
2022/10/10 06:03:11;;;;;;;13.63;11.57;;;;;;;;;;5066510;28;20471;-76
2022/10/10 06:05:38;;;;;;;17.70;11.50;;;;;;;;;;5072658;28;20865;-75
2022/10/10 06:08:05;;;;;;;19.30;11.00;;;;;;;;;;5072686;28;20447;-74
2022/10/10 06:10:34;;;;;;;13.67;11.83;;;;;;;;;;5072591;28;20467;-77
2022/10/10 06:13:01;;;;;;;17.47;11.63;;;;;;;;;;5056071;28;20944;-76
2022/10/10 06:15:28;;;;;;;18.30;11.23;;;;;;;;;;5052729;28;20504;-76
2022/10/10 06:17:57;;;;;;;15.57;12.00;;;;;;;;;;5052885;28;20441;-76
2022/10/10 06:20:24;;;;;;;13.20;10.87;;;;;;;;;;5059192;28;20855;-76
2022/10/10 06:22:51;;;;;;;14.67;11.50;;;;;;;;;;5072033;28;20925;-76
2022/10/10 06:25:18;;;;;;;13.23;11.30;;;;;;;;;;5070181;28;20443;-76
2022/10/10 06:27:45;;;;;;;12.00;10.70;;;;;;;;;;5065290;28;20445;-76
2022/10/10 06:30:12;;;;;;;12.57;11.20;;;;;;;;;;5069444;28;20463;-76
2022/10/10 06:32:39;;;;;;;11.70;10.50;;;;;;;;;;5068350;28;20445;-77
2022/10/10 06:35:08;;;;;;;11.53;10.50;;;;;;;;;;5059205;28;20867;-75
2022/10/10 06:37:35;;;;;;;15.60;11.37;;;;;;;;;;5070771;28;21067;-75
2022/10/10 06:40:02;;;;;;;13.23;10.90;;;;;;;;;;5072453;28;20464;-76
2022/10/10 06:42:29;;;;;;;12.30;11.10;;;;;;;;;;5069061;28;20440;-75
2022/10/10 06:44:57;;;;;;;11.63;10.50;;;;;;;;;;5072243;28;20776;-76
2022/10/10 06:47:24;;;;;;;13.13;11.53;;;;;;;;;;5072258;28;20453;-75
2022/10/10 06:49:51;;;;;;;13.27;11.90;;;;;;;;;;5072715;28;20475;-75
2022/10/10 06:52:19;;;;;;;14.43;12.90;;;;;;;;;;5072595;28;20468;-76
2022/10/10 06:54:46;;;;;;;13.40;11.73;;;;;;;;;;5071822;28;20488;-75
2022/10/10 06:57:13;;;;;;;13.47;11.20;;;;;;;;;;5070415;28;20445;-74
2022/10/10 06:59:40;;;;;;;11.47;10.37;;;;;;;;;;5068956;28;20467;-77
2022/10/10 07:02:07;;;;;;;12.00;10.87;;;;;;;;;;5051871;28;20442;-76
2022/10/10 07:04:34;;;;;;;11.37;10.37;;;;;;;;;;5051301;28;20454;-77
2022/10/10 07:07:01;;;;;;;13.73;12.40;;;;;;;;;;5051958;28;20438;-75
2022/10/10 07:09:30;;;;;;;11.90;10.80;;;;;;;;;;5051651;28;20847;-76
2022/10/10 07:11:57;;;;;;;10.40;9.47;;;;;;;;;;5059874;28;20443;-75
2022/10/10 07:14:24;;;;;;;13.00;10.57;;;;;;;;;;5070986;28;20445;-75
2022/10/10 07:16:51;;;;;;;11.77;10.63;;;;;;;;;;5072105;28;20480;-77
2022/10/10 07:19:20;;;;;;;11.27;10.17;;;;;;;;;;5071665;28;20448;-76
2022/10/10 07:21:47;;;;;;;14.27;10.10;;;;;;;;;;5071671;28;20842;-76
2022/10/10 07:24:14;;;;;;;20.40;11.50;;;;;;;;;;5071328;28;21099;-75
2022/10/10 07:26:42;;;;;;;27.33;13.37;;;;;;;;;;5071663;28;20444;-75
2022/10/10 07:29:09;;;;;;;12.80;10.67;;;;;;;;;;5072038;28;20514;-76
2022/10/10 07:31:36;;;;;;;16.50;10.80;;;;;;;;;;5072016;28;20463;-76
2022/10/10 07:34:05;;;;;;;12.70;11.40;;;;;;;;;;5071473;28;20445;-75
2022/10/10 07:36:32;;;;;;;13.03;10.40;;;;;;;;;;5072309;28;20481;-75
2022/10/10 07:38:59;;;;;;;12.53;10.60;;;;;;;;;;5072169;28;20444;-76
2022/10/10 07:41:26;;;;;;;18.63;10.70;;;;;;;;;;5075720;28;20461;-76
2022/10/10 07:43:56;;;;;;;10.60;9.50;;;;;;;;;;5073175;28;20478;-76
2022/10/10 07:46:23;;;;;;;10.63;9.70;;;;;;;;;;5071592;28;20784;-77
2022/10/10 07:48:50;;;;;;;10.77;9.77;;;;;;;;;;5071449;28;20459;-76
2022/10/10 07:51:17;;;;;;;13.50;10.20;;;;;;;;;;5071428;28;20916;-76
2022/10/10 07:53:44;;;;;;;16.57;9.40;;;;;;;;;;5071075;28;20515;-75
2022/10/10 07:56:11;;;;;;;11.53;10.33;;;;;;;;;;5071592;28;20726;-75
2022/10/10 07:58:39;;;;;;;11.20;10.10;;;;;;;;;;5071249;28;20445;-76
2022/10/10 08:01:09;;;;;;;12.97;9.90;;;;;;;;;;5071525;28;20837;-76
2022/10/10 08:03:36;;;;;;;10.97;9.97;;;;;;;;;;5068497;28;20448;-76
2022/10/10 08:06:04;;;;;;;10.97;9.83;;;;;;;;;;5068872;28;20440;-77
2022/10/10 08:08:31;;;;;;;11.87;10.63;;;;;;;;;;5068410;28;20841;-76
2022/10/10 08:10:58;;;;;;;12.57;9.87;;;;;;;;;;5069030;28;20480;-75
2022/10/10 08:13:25;;;;;;;10.87;9.77;;;;;;;;;;5067840;28;20460;-77
2022/10/10 08:15:52;;;;;;;10.00;9.20;;;;;;;;;;5068340;28;20476;-76
2022/10/10 08:18:21;;;;;;;10.73;9.77;;;;;;;;;;5068312;28;20448;-76
2022/10/10 08:20:48;;;;;;;11.47;10.30;;;;;;;;;;5068269;28;20460;-76
2022/10/10 08:23:15;;;;;;;11.50;10.03;;;;;;;;;;5067693;28;20441;-76
2022/10/10 08:25:42;;;;;;;11.40;10.20;;;;;;;;;;5068166;28;20440;-76
2022/10/10 08:28:09;;;;;;;11.27;10.17;;;;;;;;;;5068133;28;20456;-76
2022/10/10 08:30:40;;;;;;;11.33;9.77;;;;;;;;;;5066135;28;20476;-75
2022/10/10 08:33:07;;;;;;;11.87;9.33;;;;;;;;;;5059745;28;20531;-75
2022/10/10 08:35:39;;;;;;;10.97;9.50;;;;;;;;;;5059558;28;20492;-75
2022/10/10 08:38:07;;;;;;;10.70;9.53;;;;;;;;;;5068276;28;20449;-76
2022/10/10 08:40:35;;;;;;;12.33;10.00;;;;;;;;;;5068502;28;20471;-76
2022/10/10 08:43:04;;;;;;;12.73;10.63;;;;;;;;;;5067575;28;20452;-75
2022/10/10 08:45:33;;;;;;;13.23;10.10;;;;;;;;;;5068344;28;20529;-76
2022/10/10 08:48:01;;;;;;;10.70;9.60;;;;;;;;;;5063400;28;20456;-75
2022/10/10 08:50:30;;;;;;;10.47;9.20;;;;;;;;;;5067675;28;20861;-75
2022/10/10 08:53:01;;;;;;;11.10;9.90;;;;;;;;;;5059160;28;20449;-76
2022/10/10 08:55:32;;;;;;;14.40;9.87;;;;;;;;;;5069912;28;20484;-76
2022/10/10 08:58:00;;;;;;;11.90;9.57;;;;;;;;;;5068054;28;20587;-77
2022/10/10 09:00:31;;;;;;;10.97;9.90;;;;;;;;;;5068620;28;20464;-77
2022/10/10 09:03:00;;;;;;;15.20;10.20;;;;;;;;;;5067373;28;20539;-76
2022/10/10 09:05:35;;;;;;;11.90;10.73;;;;;;;;;;5068203;28;20546;-77
2022/10/10 09:08:12;;;;;;;11.03;9.90;;;;;;;;;;5067666;28;20448;-76
2022/10/10 09:10:44;;;;;;;13.17;8.63;;;;;;;;;;5067915;28;20464;-76
2022/10/10 09:13:15;;;;;;;11.40;9.00;;;;;;;;;;5067165;28;20449;-74
2022/10/10 09:15:55;;;;;;;11.07;9.93;;;;;;;;;;5067823;28;20834;-75
2022/10/10 09:18:28;;;;;;;10.43;9.17;;;;;;;;;;5068253;28;20487;-77
2022/10/10 09:20:59;;;;;;;13.43;9.37;;;;;;;;;;5067929;28;20475;-76
2022/10/10 09:23:29;;;;;;;14.00;8.57;;;;;;;;;;5068124;28;20800;-77
2022/10/10 09:25:59;;;;;;;10.00;8.37;;;;;;;;;;5068217;28;20448;-75
2022/10/10 09:28:34;;;;;;;8.73;7.83;;;;;;;;;;5068230;28;20448;-74
2022/10/10 09:31:02;;;;;;;11.23;8.20;;;;;;;;;;5069128;28;20460;-75
2022/10/10 09:33:32;;;;;;;8.40;7.70;;;;;;;;;;5075819;28;20441;-75
2022/10/10 09:36:01;;;;;;;10.90;8.13;;;;;;;;;;5077590;28;21007;-75
2022/10/10 09:38:33;;;;;;;8.73;7.67;;;;;;;;;;5079790;28;20443;-76
2022/10/10 09:41:02;;;;;;;8.40;7.70;;;;;;;;;;5079696;28;20472;-76
2022/10/10 09:43:31;;;;;;;7.37;6.60;;;;;;;;;;5081247;28;20459;-76
2022/10/10 09:45:58;;;;;;;8.87;7.47;;;;;;;;;;5081878;28;20433;-75
2022/10/10 09:48:28;;;;;;;7.60;6.70;;;;;;;;;;5077929;28;20452;-76
2022/10/10 09:50:55;;;;;;;10.00;6.87;;;;;;;;;;5071447;28;20467;-74
2022/10/10 09:53:22;;;;;;;10.63;7.20;;;;;;;;;;5070798;28;20447;-76
2022/10/10 09:55:52;;;;;;;7.57;6.40;;;;;;;;;;5072490;28;20858;-76
2022/10/10 09:58:23;;;;;;;9.43;7.07;;;;;;;;;;5072424;28;20444;-76
2022/10/10 10:00:52;;;;;;;7.63;6.20;;;;;;;;;;5074295;28;20480;-76
2022/10/10 10:03:20;;;;;;;10.77;6.40;;;;;;;;;;5075779;28;20455;-74
2022/10/10 10:05:54;;;;;;;6.17;5.53;;;;;;;;;;5075037;28;20543;-76
2022/10/10 10:08:26;;;;;;;7.47;6.77;;;;;;;;;;5071688;28;20476;-76
2022/10/10 10:10:57;;;;;;;8.63;6.00;;;;;;;;;;5071040;28;20469;-75
2022/10/10 10:13:26;;;;;;;9.17;5.87;;;;;;;;;;5051517;28;20453;-76
2022/10/10 10:15:57;;;;;;;9.00;6.60;;;;;;;;;;5054467;28;20485;-75
2022/10/10 10:18:26;;;;;;;8.00;6.20;;;;;;;;;;5058978;28;20457;-76
2022/10/10 10:21:12;;;;;;;6.13;5.50;;;;;;;;;;5057746;28;20530;-75
2022/10/10 10:23:41;;;;;;;6.20;5.13;;;;;;;;;;5057862;28;20453;-75
2022/10/10 10:26:16;;;;;;;4.93;4.20;;;;;;;;;;5057439;28;20442;-75
2022/10/10 10:28:43;;;;;;;7.07;4.10;;;;;;;;;;5057486;28;20459;-76
2022/10/10 10:31:16;;;;;;;4.10;3.67;;;;;;;;;;5056896;28;20473;-74
2022/10/10 10:33:47;;;;;;;9.17;3.73;;;;;;;;;;5057781;28;20433;-74
2022/10/10 10:36:19;;;;;;;7.17;4.90;;;;;;;;;;5058220;28;20494;-75
2022/10/10 10:38:49;;;;;;;4.07;3.50;;;;;;;;;;5050866;28;20445;-75
2022/10/10 10:41:21;;;;;;;4.83;3.60;;;;;;;;;;5050592;28;20460;-75
2022/10/10 10:44:06;;;;;;;3.40;3.10;;;;;;;;;;5049834;28;20450;-75
2022/10/10 10:46:39;;;;;;;3.77;3.47;;;;;;;;;;5050272;28;20438;-75
2022/10/10 10:49:11;;;;;;;5.60;3.87;;;;;;;;;;5049548;28;20446;-75
2022/10/10 10:51:50;;;;;;;7.60;6.90;;;;;;;;;;5052701;28;20468;-74
2022/10/10 10:54:24;;;;;;;6.30;3.20;;;;;;;;;;5061976;28;20444;-76
2022/10/10 10:56:54;;;;;;;4.80;3.30;;;;;;;;;;5064740;28;20575;-76
2022/10/10 10:59:28;;;;;;;3.53;3.23;;;;;;;;;;5070355;28;20449;-75
2022/10/10 11:01:59;;;;;;;4.10;3.70;;;;;;;;;;5068534;28;20468;-75
2022/10/10 11:04:46;;;;;;;5.00;2.80;;;;;;;;;;5069613;28;20459;-75
2022/10/10 11:07:15;;;;;;;6.23;3.00;;;;;;;;;;5069900;28;20434;-75
2022/10/10 11:09:44;;;;;;;6.90;4.00;;;;;;;;;;5069379;28;21098;-75
2022/10/10 11:12:15;;;;;;;6.27;3.03;;;;;;;;;;5060371;28;20541;-74
2022/10/10 11:14:52;;;;;;;5.20;2.77;;;;;;;;;;5049114;28;20430;-75
2022/10/10 11:17:22;;;;;;;4.30;3.30;;;;;;;;;;5050546;28;20681;-76
2022/10/10 11:19:55;;;;;;;5.90;2.90;;;;;;;;;;5049663;28;20488;-74
2022/10/10 11:22:27;;;;;;;4.40;3.03;;;;;;;;;;5050434;28;20545;-75
2022/10/10 11:24:56;;;;;;;3.23;2.93;;;;;;;;;;5049025;28;20449;-75
2022/10/10 11:27:27;;;;;;;5.40;3.00;;;;;;;;;;5056394;28;20437;-75
2022/10/10 11:29:59;;;;;;;9.90;3.00;;;;;;;;;;5069224;28;20471;-75
2022/10/10 11:32:29;;;;;;;5.50;3.40;;;;;;;;;;5069399;28;20445;-75
2022/10/10 11:35:03;;;;;;;4.50;2.70;;;;;;;;;;5069227;28;20452;-75
2022/10/10 11:37:32;;;;;;;8.30;2.90;;;;;;;;;;5069685;28;20479;-75
2022/10/10 11:40:01;;;;;;;10.73;3.50;;;;;;;;;;5069206;28;20977;-75
2022/10/10 11:42:33;;;;;;;4.20;2.63;;;;;;;;;;5068877;28;20823;-76
2022/10/10 11:45:03;;;;;;;16.37;3.60;;;;;;;;;;5069049;28;20460;-75
2022/10/10 11:47:33;;;;;;;7.07;4.33;;;;;;;;;;5069875;28;20452;-75
2022/10/10 11:50:01;;;;;;;5.20;3.30;;;;;;;;;;5068835;28;20491;-75
2022/10/10 11:52:31;;;;;;;4.60;3.23;;;;;;;;;;5066012;28;20445;-74
2022/10/10 11:55:03;;;;;;;6.10;2.93;;;;;;;;;;5061031;28;20448;-75
2022/10/10 11:57:34;;;;;;;7.43;3.70;;;;;;;;;;5069132;28;20460;-76
2022/10/10 12:00:04;;;;;;;5.80;3.00;;;;;;;;;;5063475;28;20546;-76
2022/10/10 12:02:32;;;;;;;6.50;3.10;;;;;;;;;;5070931;28;20440;-76
2022/10/10 12:04:59;;;;;;;4.37;3.10;;;;;;;;;;5068424;28;20979;-75
2022/10/10 12:07:28;;;;;;;5.43;3.40;;;;;;;;;;5069423;28;20448;-76
2022/10/10 12:10:02;;;;;;;8.97;3.90;;;;;;;;;;5067984;28;20955;-76
2022/10/10 12:12:30;;;;;;;9.50;3.30;;;;;;;;;;5068892;28;20463;-75
2022/10/10 12:15:02;;;;;;;7.43;3.07;;;;;;;;;;5068848;28;20448;-75
2022/10/10 12:17:32;;;;;;;4.10;3.20;;;;;;;;;;5068542;28;21010;-76
2022/10/10 12:20:10;;;;;;;4.63;3.00;;;;;;;;;;5068235;28;20465;-76
2022/10/10 12:22:37;;;;;;;4.70;2.73;;;;;;;;;;5067968;28;20455;-75
2022/10/10 12:25:21;;;;;;;8.13;3.50;;;;;;;;;;5068609;28;20449;-75
2022/10/10 12:28:02;;;;;;;4.47;2.93;;;;;;;;;;5068598;28;20496;-74
2022/10/10 12:30:30;;;;;;;6.00;3.10;;;;;;;;;;5069143;28;20465;-75
2022/10/10 12:32:58;;;;;;;6.10;3.20;;;;;;;;;;5067783;28;20560;-76
2022/10/10 12:35:30;;;;;;;5.93;4.00;;;;;;;;;;5067964;28;20448;-76
2022/10/10 12:38:08;;;;;;;6.53;3.50;;;;;;;;;;5068891;28;20541;-75
2022/10/10 12:40:35;;;;;;;6.03;3.00;;;;;;;;;;5068426;28;20464;-75
2022/10/10 12:43:23;;;;;;;7.53;3.97;;;;;;;;;;5067637;28;20940;-77
2022/10/10 12:45:58;;;;;;;6.47;3.50;;;;;;;;;;5068512;28;20459;-76
2022/10/10 12:48:27;;;;;;;8.73;4.10;;;;;;;;;;5067910;28;20445;-76
2022/10/10 12:50:56;;;;;;;10.97;3.93;;;;;;;;;;5068238;28;20475;-76
2022/10/10 12:53:24;;;;;;;5.50;2.77;;;;;;;;;;5067944;28;20449;-77
2022/10/10 12:55:52;;;;;;;5.67;3.20;;;;;;;;;;5068914;28;20527;-76
2022/10/10 12:58:23;;;;;;;6.73;3.97;;;;;;;;;;5068017;28;20542;-76
2022/10/10 13:00:51;;;;;;;4.57;3.60;;;;;;;;;;5067906;28;20463;-76
2022/10/10 13:03:21;;;;;;;8.80;3.67;;;;;;;;;;5067005;28;20456;-76
2022/10/10 13:05:58;;;;;;;7.17;3.53;;;;;;;;;;5068710;28;20457;-77
2022/10/10 13:08:27;;;;;;;9.70;3.80;;;;;;;;;;5071608;28;21065;-77
2022/10/10 13:11:07;;;;;;;5.03;3.43;;;;;;;;;;5070704;28;20461;-77
2022/10/10 13:13:34;;;;;;;6.33;3.60;;;;;;;;;;5052158;28;20469;-76
2022/10/10 13:16:06;;;;;;;6.80;3.73;;;;;;;;;;5052020;28;20450;-75
2022/10/10 13:18:35;;;;;;;8.93;3.40;;;;;;;;;;5051226;28;20472;-77
2022/10/10 13:21:03;;;;;;;6.13;3.10;;;;;;;;;;5059261;28;20464;-75
2022/10/10 13:23:30;;;;;;;7.30;3.73;;;;;;;;;;5068271;28;20491;-76
2022/10/10 13:25:58;;;;;;;5.60;3.67;;;;;;;;;;5067446;28;20440;-76
2022/10/10 13:28:25;;;;;;;6.73;3.27;;;;;;;;;;5068277;28;20441;-77
2022/10/10 13:30:52;;;;;;;6.57;3.70;;;;;;;;;;5069332;28;20467;-77
2022/10/10 13:33:20;;;;;;;11.30;3.93;;;;;;;;;;5068235;28;20452;-77
2022/10/10 13:35:49;;;;;;;9.27;3.90;;;;;;;;;;5069426;28;20967;-76
2022/10/10 13:38:17;;;;;;;6.83;3.43;;;;;;;;;;5069723;28;20999;-76
2022/10/10 13:40:45;;;;;;;7.97;3.80;;;;;;;;;;5069776;28;20488;-76
2022/10/10 13:43:14;;;;;;;8.83;3.60;;;;;;;;;;5069098;28;20472;-76
2022/10/10 13:45:45;;;;;;;5.97;3.47;;;;;;;;;;5070152;28;20456;-75
2022/10/10 13:48:36;;;;;;;10.67;4.30;;;;;;;;;;5069623;28;20825;-77
2022/10/10 13:51:06;;;;;;;5.53;3.40;;;;;;;;;;5054494;28;20730;-76
2022/10/10 13:53:34;;;;;;;9.20;4.00;;;;;;;;;;5068985;28;20440;-76
2022/10/10 13:56:05;;;;;;;7.30;3.57;;;;;;;;;;5069493;28;20445;-76
2022/10/10 13:58:33;;;;;;;6.97;3.60;;;;;;;;;;5069329;28;20975;-76
2022/10/10 14:01:01;;;;;;;3.10;2.83;;;;;;;;;;5069873;28;20467;-75
2022/10/10 14:03:29;;;;;;;5.40;3.60;;;;;;;;;;5068571;28;20959;-76
2022/10/10 14:05:57;;;;;;;8.43;3.30;;;;;;;;;;5069314;28;20904;-76
2022/10/10 14:08:27;;;;;;;7.40;3.60;;;;;;;;;;5069177;28;20445;-77
2022/10/10 14:10:59;;;;;;;6.70;3.50;;;;;;;;;;5069530;28;20464;-77
2022/10/10 14:13:27;;;;;;;10.50;3.90;;;;;;;;;;5068503;28;20441;-76
2022/10/10 14:15:54;;;;;;;6.20;3.20;;;;;;;;;;5069383;28;20951;-77
2022/10/10 14:18:22;;;;;;;10.07;4.13;;;;;;;;;;5069159;28;20480;-76
2022/10/10 14:20:49;;;;;;;8.90;3.50;;;;;;;;;;5069215;28;20983;-76
2022/10/10 14:23:17;;;;;;;8.07;4.00;;;;;;;;;;5068814;28;20441;-77
2022/10/10 14:25:46;;;;;;;7.43;3.13;;;;;;;;;;5071764;28;20444;-76
2022/10/10 14:28:15;;;;;;;4.27;3.20;;;;;;;;;;5073169;28;20502;-77
2022/10/10 14:30:42;;;;;;;8.40;3.50;;;;;;;;;;5073055;28;20522;-76
2022/10/10 14:33:11;;;;;;;6.60;3.77;;;;;;;;;;5071963;28;20440;-76
2022/10/10 14:35:39;;;;;;;3.93;3.53;;;;;;;;;;5072539;28;20876;-76
2022/10/10 14:38:06;;;;;;;10.30;4.53;;;;;;;;;;5072522;28;20487;-76
2022/10/10 14:40:35;;;;;;;6.70;3.10;;;;;;;;;;5072582;28;20475;-77
2022/10/10 14:43:04;;;;;;;6.27;3.40;;;;;;;;;;5072288;28;20924;-76
2022/10/10 14:45:31;;;;;;;8.73;4.63;;;;;;;;;;5072003;28;20447;-75